Terminal Aerodrome Forecast
Issued by NWS

Home | Current Version | Previous Version | Text Only | Print | Product List | Glossary On
Versions: 1 2 3 4 5 6 7 8 9 10 11 12 13 14 15 16 17 18 19 20 21 22 23 24 25 26 27 28 29 30 31 32 33 34 35 36
065
FTUS45 KBOU 240541 CCA
TAFBJC
TAF COR
KBJC 240541Z 2406/2506 18008G14KT P6SM SCT220
     FM240700 20007KT P6SM SCT220
     FM240900 25006KT P6SM SCT220
     FM241400 VRB05KT P6SM FEW150 SCT220
     FM241800 07006KT P6SM FEW080 SCT140
     FM250100 15008KT P6SM SCT140 BKN220
     FM250400 23007KT P6SM SCT080 BKN140=

USA.gov is the U.S. government's official web portal to all federal, state and local government web resources and services.